createdAt,value
2018-05-24T00:09:58.000Z,24.51
2018-05-24T00:19:59.000Z,24.47
2018-05-24T00:29:58.000Z,24.44
2018-05-24T00:39:58.000Z,24.4
2018-05-24T00:49:59.000Z,24.38
2018-05-24T00:59:59.000Z,24.34
2018-05-24T01:09:59.000Z,24.31
2018-05-24T01:19:59.000Z,24.28
2018-05-24T01:29:59.000Z,24.25
2018-05-24T01:40:00.000Z,24.21
2018-05-24T01:49:59.000Z,24.15
2018-05-24T01:59:59.000Z,24.11
2018-05-24T02:09:59.000Z,24.07
2018-05-24T02:19:59.000Z,24.06
2018-05-24T02:29:59.000Z,24.03
2018-05-24T02:39:59.000Z,24
2018-05-24T02:49:59.000Z,23.98
2018-05-24T02:59:59.000Z,23.94
2018-05-24T03:09:59.000Z,23.93
2018-05-24T03:20:00.000Z,23.9
2018-05-24T03:29:59.000Z,23.87
2018-05-24T03:39:59.000Z,23.86
2018-05-24T03:49:59.000Z,23.84
2018-05-24T03:59:59.000Z,23.82
2018-05-24T04:09:59.000Z,23.81
2018-05-24T04:19:59.000Z,23.8
2018-05-24T04:29:59.000Z,23.79
2018-05-24T04:39:59.000Z,23.78
2018-05-24T04:49:59.000Z,23.75
2018-05-24T04:59:59.000Z,23.75
2018-05-24T05:09:59.000Z,23.74
2018-05-24T05:19:59.000Z,23.74
2018-05-24T05:29:59.000Z,23.75
2018-05-24T05:39:59.000Z,23.76
2018-05-24T05:49:59.000Z,23.81
2018-05-24T05:59:59.000Z,23.88
2018-05-24T06:09:59.000Z,23.95
2018-05-24T06:19:59.000Z,23.97
2018-05-24T06:29:59.000Z,23.98
2018-05-24T06:39:59.000Z,24.01
2018-05-24T06:49:59.000Z,24.08
2018-05-24T06:59:59.000Z,24.18
2018-05-24T07:09:59.000Z,24.23
2018-05-24T07:19:59.000Z,24.31
2018-05-24T07:29:59.000Z,24.34
2018-05-24T07:39:59.000Z,24.39
2018-05-24T07:49:59.000Z,24.39
2018-05-24T07:59:59.000Z,24.47
2018-05-24T08:09:59.000Z,24.67
2018-05-24T08:19:59.000Z,24.75
2018-05-24T08:29:59.000Z,24.78
2018-05-24T08:39:59.000Z,24.89
2018-05-24T08:49:59.000Z,25.08
2018-05-24T08:59:59.000Z,25.17
2018-05-24T09:10:00.000Z,25.31
2018-05-24T09:20:00.000Z,25.43
2018-05-24T09:30:00.000Z,25.39
2018-05-24T09:40:00.000Z,25.48
2018-05-24T09:50:00.000Z,25.67
2018-05-24T10:00:00.000Z,25.83
2018-05-24T10:10:00.000Z,25.76
2018-05-24T10:30:00.000Z,25.6
2018-05-24T10:40:00.000Z,25.54
2018-05-24T10:50:00.000Z,25.51
2018-05-24T11:00:00.000Z,25.54
2018-05-24T11:10:00.000Z,25.69
2018-05-24T11:20:00.000Z,25.59
2018-05-24T11:30:00.000Z,25.63
2018-05-24T11:40:00.000Z,25.51
2018-05-24T11:50:00.000Z,25.49
2018-05-24T12:00:00.000Z,25.37
2018-05-24T12:10:00.000Z,25.44
2018-05-24T12:20:00.000Z,25.34
2018-05-24T12:30:00.000Z,25.34
2018-05-24T12:40:00.000Z,25.36
2018-05-24T12:50:00.000Z,25.37
2018-05-24T13:00:00.000Z,25.28
2018-05-24T13:10:00.000Z,25.18
2018-05-24T13:20:00.000Z,25.28
2018-05-24T13:30:00.000Z,25.24
2018-05-24T13:40:00.000Z,25.17
2018-05-24T13:50:00.000Z,25.17
2018-05-24T14:00:00.000Z,25.18
2018-05-24T14:10:00.000Z,25.08
2018-05-24T14:20:00.000Z,25.02
2018-05-24T14:30:00.000Z,24.99
2018-05-24T14:40:00.000Z,24.92
2018-05-24T14:50:00.000Z,24.99
2018-05-24T15:00:03.000Z,24.97
2018-05-24T15:10:00.000Z,24.92
2018-05-24T15:20:00.000Z,24.88
2018-05-24T15:30:00.000Z,24.91
2018-05-24T15:40:00.000Z,24.85
2018-05-24T15:50:00.000Z,24.96
2018-05-24T16:00:00.000Z,24.85
2018-05-24T16:10:00.000Z,24.88
2018-05-24T16:20:00.000Z,24.95
2018-05-24T16:30:03.000Z,24.9
2018-05-24T16:40:02.000Z,24.98
2018-05-24T16:50:00.000Z,24.94
2018-05-24T17:00:00.000Z,24.99
2018-05-24T17:10:01.000Z,24.92
2018-05-24T17:20:01.000Z,24.92
2018-05-24T17:30:01.000Z,24.87
2018-05-24T17:40:01.000Z,24.85
2018-05-24T17:50:01.000Z,24.78
2018-05-24T18:00:01.000Z,24.79
2018-05-24T18:10:01.000Z,24.84
2018-05-24T18:20:01.000Z,24.81
2018-05-24T18:30:01.000Z,24.85
2018-05-24T18:40:01.000Z,24.86
2018-05-24T18:50:01.000Z,24.85
2018-05-24T19:00:01.000Z,24.85
2018-05-24T19:10:01.000Z,24.86
2018-05-24T19:20:01.000Z,24.89
2018-05-24T19:30:01.000Z,24.85
2018-05-24T19:40:01.000Z,24.87
2018-05-24T19:50:01.000Z,24.88
2018-05-24T20:00:01.000Z,24.89
2018-05-24T20:10:01.000Z,24.89
2018-05-24T20:20:01.000Z,24.89
2018-05-24T20:30:01.000Z,24.86
2018-05-24T20:40:01.000Z,24.89
2018-05-24T20:50:01.000Z,24.87
2018-05-24T21:00:01.000Z,24.83
2018-05-24T21:10:01.000Z,24.84
2018-05-24T21:20:01.000Z,24.81
2018-05-24T21:30:01.000Z,24.77
2018-05-24T21:40:01.000Z,24.72
2018-05-24T21:50:01.000Z,24.67
2018-05-24T22:00:01.000Z,24.62
2018-05-24T22:10:01.000Z,24.59
2018-05-24T22:20:01.000Z,24.53
2018-05-24T22:30:01.000Z,24.51
2018-05-24T22:40:01.000Z,24.47
2018-05-24T22:50:01.000Z,24.42
2018-05-24T23:00:01.000Z,24.38
2018-05-24T23:10:01.000Z,24.34
2018-05-24T23:20:01.000Z,24.3
2018-05-24T23:30:01.000Z,24.27
2018-05-24T23:40:01.000Z,24.23
2018-05-24T23:50:01.000Z,24.19
